createdAt,value
2018-11-29T00:02:12.386Z,1.70
2018-11-29T00:04:41.069Z,1.60
2018-11-29T00:07:10.919Z,1.50
2018-11-29T00:09:39.434Z,1.50
2018-11-29T00:12:13.276Z,1.40
2018-11-29T00:14:41.182Z,1.40
2018-11-29T00:17:09.200Z,1.20
2018-11-29T00:19:37.040Z,1.20
2018-11-29T00:22:05.535Z,1.20
2018-11-29T00:24:36.378Z,1.20
2018-11-29T00:27:21.886Z,1.20
2018-11-29T00:30:01.483Z,1.20
2018-11-29T00:32:29.522Z,1.20
2018-11-29T00:35:00.293Z,1.20
2018-11-29T00:37:31.003Z,1.20
2018-11-29T00:40:01.440Z,1.20
2018-11-29T00:42:30.208Z,1.20
2018-11-29T00:44:58.197Z,1.30
2018-11-29T00:47:27.972Z,1.20
2018-11-29T00:49:56.395Z,1.20
2018-11-29T00:52:24.353Z,1.20
2018-11-29T00:54:53.414Z,1.20
2018-11-29T00:57:21.315Z,1.20
2018-11-29T00:59:50.030Z,1.20
2018-11-29T01:02:17.930Z,1.20
2018-11-29T01:04:45.918Z,1.20
2018-11-29T01:07:14.427Z,1.20
2018-11-29T01:09:42.453Z,1.20
2018-11-29T01:12:11.017Z,1.20
2018-11-29T01:14:39.044Z,1.20
2018-11-29T01:17:06.925Z,1.30
2018-11-29T01:19:34.891Z,1.30
2018-11-29T01:22:03.852Z,1.30
2018-11-29T01:24:32.269Z,1.30
2018-11-29T01:27:00.162Z,1.40
2018-11-29T01:29:29.484Z,1.40
2018-11-29T01:31:58.056Z,1.40
2018-11-29T01:34:25.958Z,1.40
2018-11-29T01:36:53.788Z,1.50
2018-11-29T01:39:21.623Z,1.50
2018-11-29T01:41:49.588Z,1.40
2018-11-29T01:44:17.466Z,1.40
2018-11-29T01:46:46.476Z,1.40
2018-11-29T01:49:14.453Z,1.40
2018-11-29T01:51:42.287Z,1.40
2018-11-29T01:54:11.375Z,1.40
2018-11-29T01:56:39.340Z,1.50
2018-11-29T01:59:08.650Z,1.50
2018-11-29T02:01:36.545Z,1.50
2018-11-29T02:04:05.615Z,1.50
2018-11-29T02:06:33.491Z,1.40
2018-11-29T02:09:09.085Z,1.50
2018-11-29T02:11:37.025Z,1.50
2018-11-29T02:14:05.911Z,1.60
2018-11-29T02:16:33.946Z,1.70
2018-11-29T02:19:02.011Z,1.60
2018-11-29T02:21:30.620Z,1.60
2018-11-29T02:24:02.107Z,1.60
2018-11-29T02:26:30.803Z,1.60
2018-11-29T02:28:58.787Z,1.60
2018-11-29T02:31:32.938Z,1.70
2018-11-29T02:34:00.975Z,1.60
2018-11-29T02:36:28.880Z,1.70
2018-11-29T02:38:58.063Z,1.60
2018-11-29T02:41:26.605Z,1.60
2018-11-29T02:43:55.007Z,1.60
2018-11-29T02:46:23.471Z,1.60
2018-11-29T02:48:53.040Z,1.60
2018-11-29T02:51:20.983Z,1.70
2018-11-29T02:53:48.869Z,1.70
2018-11-29T02:56:16.759Z,1.70
2018-11-29T02:58:44.611Z,1.80
2018-11-29T03:01:14.671Z,1.80
2018-11-29T03:03:42.601Z,1.90
2018-11-29T03:06:11.457Z,1.90
2018-11-29T03:08:39.324Z,1.90
2018-11-29T03:11:07.398Z,2.00
2018-11-29T03:13:35.309Z,2.00
2018-11-29T03:16:04.224Z,2.00
2018-11-29T03:18:32.118Z,2.10
2018-11-29T03:21:00.114Z,2.10
2018-11-29T03:23:28.779Z,2.10
2018-11-29T03:25:57.372Z,2.20
2018-11-29T03:28:25.385Z,2.20
2018-11-29T03:30:53.244Z,2.20
2018-11-29T03:33:21.168Z,2.20
2018-11-29T03:35:49.246Z,2.20
2018-11-29T03:38:20.964Z,2.20
2018-11-29T03:40:49.625Z,2.30
2018-11-29T03:43:17.626Z,2.20
2018-11-29T03:45:45.490Z,2.30
2018-11-29T03:48:13.958Z,2.30
2018-11-29T03:50:44.340Z,2.40
2018-11-29T03:53:13.029Z,2.40
2018-11-29T03:55:40.896Z,2.40
2018-11-29T03:58:08.893Z,2.40
2018-11-29T04:00:36.896Z,2.40
2018-11-29T04:03:05.892Z,2.30
2018-11-29T04:05:35.338Z,2.30
2018-11-29T04:08:02.724Z,2.30
2018-11-29T04:10:32.189Z,2.30
2018-11-29T04:13:00.099Z,2.30
2018-11-29T04:15:28.984Z,2.30
2018-11-29T04:17:56.988Z,2.30
2018-11-29T04:20:26.819Z,2.30
2018-11-29T04:22:56.401Z,2.30
2018-11-29T04:25:24.533Z,2.30
2018-11-29T04:27:52.593Z,2.30
2018-11-29T04:30:20.655Z,2.30
2018-11-29T04:32:48.950Z,2.40
2018-11-29T04:35:16.917Z,2.40
2018-11-29T04:37:44.923Z,2.30
2018-11-29T04:40:18.401Z,2.40
2018-11-29T04:42:46.315Z,2.40
2018-11-29T04:45:16.479Z,2.40
2018-11-29T04:47:44.609Z,2.50
2018-11-29T04:50:12.608Z,2.50
2018-11-29T04:52:40.708Z,2.50
2018-11-29T04:55:10.566Z,2.50
2018-11-29T04:57:39.537Z,2.50
2018-11-29T05:00:14.755Z,2.40
2018-11-29T05:02:43.782Z,2.50
2018-11-29T05:05:19.018Z,2.40
2018-11-29T05:07:47.239Z,2.50
2018-11-29T05:10:18.468Z,2.50
2018-11-29T05:12:48.239Z,2.50
2018-11-29T05:15:16.323Z,2.40
2018-11-29T05:18:15.228Z,2.40
2018-11-29T05:20:46.555Z,2.40
2018-11-29T05:23:18.857Z,2.50
2018-11-29T05:25:46.746Z,2.50
2018-11-29T05:28:21.764Z,2.50
2018-11-29T05:30:50.897Z,2.50
2018-11-29T05:33:19.312Z,2.50
2018-11-29T05:35:47.181Z,2.60
2018-11-29T05:38:15.180Z,2.60
2018-11-29T05:40:43.072Z,2.70
2018-11-29T05:43:11.317Z,2.60
2018-11-29T05:45:43.126Z,2.70
2018-11-29T05:48:47.349Z,2.60
2018-11-29T05:51:32.942Z,2.70
2018-11-29T05:54:01.857Z,2.70
2018-11-29T05:56:30.735Z,2.70
2018-11-29T05:59:00.953Z,2.70
2018-11-29T06:01:47.523Z,2.60
2018-11-29T06:04:20.555Z,2.60
2018-11-29T06:07:04.272Z,2.60
2018-11-29T06:09:37.970Z,2.60
2018-11-29T06:12:18.038Z,2.60
2018-11-29T06:14:51.898Z,2.60
2018-11-29T06:17:19.814Z,2.70
2018-11-29T06:22:28.294Z,2.60
2018-11-29T06:24:57.716Z,2.70
2018-11-29T06:27:26.976Z,2.80
2018-11-29T06:36:20.597Z,2.80
2018-11-29T06:38:53.165Z,2.80
2018-11-29T06:41:28.382Z,2.90
2018-11-29T06:44:16.699Z,2.90
2018-11-29T06:46:52.363Z,2.90
2018-11-29T06:49:35.043Z,3.00
2018-11-29T06:52:26.258Z,2.90
2018-11-29T06:55:43.917Z,3.00
2018-11-29T06:58:16.959Z,3.00
2018-11-29T07:04:47.827Z,2.90
2018-11-29T07:07:28.477Z,2.80
2018-11-29T07:09:59.681Z,2.80
2018-11-29T07:12:29.367Z,2.90
2018-11-29T07:17:44.128Z,2.80
2018-11-29T07:20:19.323Z,2.80
2018-11-29T07:25:57.037Z,2.90
2018-11-29T07:28:25.673Z,2.80
2018-11-29T07:30:55.729Z,2.70
2018-11-29T07:33:38.862Z,2.90
2018-11-29T07:36:15.256Z,2.90
2018-11-29T07:38:43.785Z,2.70
2018-11-29T07:41:12.330Z,2.80
2018-11-29T07:43:42.893Z,2.90
2018-11-29T07:46:11.278Z,2.80
2018-11-29T07:48:45.428Z,3.00
2018-11-29T07:51:17.296Z,2.90
2018-11-29T07:53:45.895Z,3.00
2018-11-29T07:56:27.038Z,3.00
2018-11-29T07:59:07.207Z,3.00
2018-11-29T08:01:37.357Z,2.90
2018-11-29T08:04:06.975Z,3.10
2018-11-29T08:07:12.136Z,2.90
2018-11-29T08:10:29.738Z,3.00
2018-11-29T08:13:00.662Z,3.10
2018-11-29T08:15:37.466Z,3.10
2018-11-29T08:18:09.258Z,2.90
2018-11-29T08:20:39.373Z,3.00
2018-11-29T08:23:15.352Z,3.00
2018-11-29T08:25:44.067Z,3.10
2018-11-29T08:28:18.114Z,3.00
2018-11-29T08:31:10.326Z,3.00
2018-11-29T08:37:10.379Z,3.10
2018-11-29T08:39:47.636Z,3.30
2018-11-29T08:42:17.025Z,3.10
2018-11-29T08:44:45.485Z,3.30
2018-11-29T08:47:15.225Z,3.30
2018-11-29T08:49:44.124Z,3.30
2018-11-29T08:52:19.847Z,3.40
2018-11-29T08:57:24.046Z,3.60
2018-11-29T08:59:54.168Z,3.60
2018-11-29T09:02:41.925Z,3.60
2018-11-29T09:08:55.736Z,3.50
2018-11-29T09:11:25.438Z,3.40
2018-11-29T09:14:01.900Z,3.40
2018-11-29T09:16:33.578Z,3.40
2018-11-29T09:19:07.978Z,3.50
2018-11-29T09:21:35.991Z,3.40
2018-11-29T09:30:11.339Z,3.70
2018-11-29T09:32:45.627Z,3.70
2018-11-29T09:38:13.927Z,3.80
2018-11-29T09:40:58.975Z,4.00
2018-11-29T09:43:42.568Z,3.90
2018-11-29T09:46:25.729Z,4.00
2018-11-29T09:49:11.691Z,4.10
2018-11-29T09:55:10.746Z,4.20
2018-11-29T09:57:41.898Z,4.40
2018-11-29T10:00:17.480Z,4.50
2018-11-29T10:02:52.593Z,4.60
2018-11-29T10:05:27.420Z,4.70
2018-11-29T10:07:55.783Z,4.70
2018-11-29T10:10:51.025Z,4.70
2018-11-29T10:13:46.283Z,4.80
2018-11-29T10:16:38.761Z,4.60
2018-11-29T10:26:10.506Z,4.60
2018-11-29T10:34:59.566Z,5.30
2018-11-29T10:37:31.578Z,5.30
2018-11-29T10:40:15.512Z,5.20
2018-11-29T10:42:43.638Z,5.00
2018-11-29T10:45:22.543Z,5.00
2018-11-29T10:47:53.619Z,5.10
2018-11-29T10:50:21.996Z,5.20
2018-11-29T10:52:55.725Z,5.20
2018-11-29T10:55:23.798Z,5.40
2018-11-29T10:58:23.985Z,5.30
2018-11-29T11:01:00.447Z,5.40
2018-11-29T11:03:29.105Z,5.60
2018-11-29T11:05:57.293Z,5.90
2018-11-29T11:08:32.238Z,5.90
2018-11-29T11:11:06.854Z,6.30
2018-11-29T11:13:39.958Z,6.70
2018-11-29T11:16:24.564Z,6.40
2018-11-29T11:18:53.486Z,6.10
2018-11-29T11:21:21.467Z,6.30
2018-11-29T11:23:59.215Z,6.30
2018-11-29T11:26:22.506Z,6.50
2018-11-29T11:28:55.037Z,6.50
2018-11-29T11:31:32.270Z,6.30
2018-11-29T11:34:08.157Z,6.60
2018-11-29T11:36:43.290Z,6.60
2018-11-29T11:39:31.243Z,6.80
2018-11-29T11:42:17.560Z,6.60
2018-11-29T11:45:12.972Z,6.60
2018-11-29T11:48:04.173Z,6.70
2018-11-29T11:54:13.458Z,6.80
2018-11-29T11:57:05.197Z,6.90
2018-11-29T12:02:54.955Z,7.00
2018-11-29T12:05:31.839Z,6.90
2018-11-29T12:08:02.588Z,6.80
2018-11-29T12:11:10.773Z,6.90
2018-11-29T12:16:52.133Z,7.00
2018-11-29T12:22:47.620Z,7.00
2018-11-29T12:25:37.133Z,6.90
2018-11-29T12:28:18.873Z,7.00
2018-11-29T12:34:25.483Z,6.70
2018-11-29T12:43:10.041Z,6.80
2018-11-29T12:45:38.728Z,6.90
2018-11-29T12:48:13.876Z,6.90
2018-11-29T12:53:52.413Z,6.90
2018-11-29T12:56:24.795Z,6.90
2018-11-29T12:58:55.246Z,6.90
2018-11-29T13:01:33.649Z,6.80
2018-11-29T13:04:10.797Z,6.60
2018-11-29T13:06:43.211Z,6.60
2018-11-29T13:09:25.368Z,6.70
2018-11-29T13:11:59.863Z,6.60
2018-11-29T13:14:32.467Z,6.70
2018-11-29T13:17:03.269Z,6.60
2018-11-29T13:19:35.300Z,6.50
2018-11-29T13:22:09.345Z,6.50
2018-11-29T13:24:41.055Z,6.50
2018-11-29T13:27:11.341Z,6.60
2018-11-29T13:29:42.160Z,6.70
2018-11-29T13:32:30.946Z,6.40
2018-11-29T13:35:00.364Z,6.50
2018-11-29T13:37:38.979Z,6.60
2018-11-29T13:40:39.290Z,6.60
2018-11-29T13:43:13.107Z,6.60
2018-11-29T13:45:52.608Z,6.60
2018-11-29T13:48:29.368Z,6.60
2018-11-29T13:51:12.511Z,6.60
2018-11-29T13:54:06.601Z,6.60
2018-11-29T13:56:42.200Z,6.50
2018-11-29T13:59:11.363Z,6.60
2018-11-29T14:01:44.487Z,6.60
2018-11-29T14:04:40.083Z,6.60
2018-11-29T14:07:18.868Z,6.50
2018-11-29T14:10:09.184Z,6.40
2018-11-29T14:12:38.805Z,6.50
2018-11-29T14:15:20.236Z,6.60
2018-11-29T14:17:50.753Z,6.60
2018-11-29T14:20:35.392Z,6.60
2018-11-29T14:23:01.805Z,6.60
2018-11-29T14:25:35.801Z,6.60
2018-11-29T14:28:09.547Z,6.60
2018-11-29T14:30:41.199Z,6.50
2018-11-29T14:36:14.054Z,6.50
2018-11-29T14:38:48.969Z,6.50
2018-11-29T14:41:26.908Z,6.60
2018-11-29T14:44:02.097Z,6.60
2018-11-29T14:50:23.577Z,6.60
2018-11-29T14:53:38.752Z,6.50
2018-11-29T14:59:28.900Z,6.50
2018-11-29T15:02:01.947Z,6.40
2018-11-29T15:04:31.095Z,6.60
2018-11-29T15:07:19.354Z,6.50
2018-11-29T15:10:19.466Z,6.50
2018-11-29T15:14:27.668Z,6.50
2018-11-29T15:16:58.219Z,6.60
2018-11-29T15:19:33.040Z,6.50
2018-11-29T15:22:39.466Z,6.50
2018-11-29T15:25:33.104Z,6.50
2018-11-29T15:28:35.318Z,6.50
2018-11-29T15:31:06.087Z,6.50
2018-11-29T15:33:34.015Z,6.60
2018-11-29T15:36:04.469Z,6.60
2018-11-29T15:38:47.271Z,6.50
2018-11-29T15:41:27.593Z,6.50
2018-11-29T15:44:09.881Z,6.60
2018-11-29T15:46:39.080Z,6.60
2018-11-29T15:49:07.410Z,6.60
2018-11-29T15:52:08.385Z,6.60
2018-11-29T15:57:36.910Z,6.70
2018-11-29T16:00:29.574Z,6.70
2018-11-29T16:03:19.896Z,6.60
2018-11-29T16:05:49.779Z,6.60
2018-11-29T16:08:30.172Z,6.70
2018-11-29T16:13:51.124Z,6.70
2018-11-29T16:16:20.700Z,6.80
2018-11-29T16:18:58.057Z,6.80
2018-11-29T16:21:31.418Z,6.80
2018-11-29T16:24:06.280Z,6.90
2018-11-29T16:26:41.285Z,6.90
2018-11-29T16:29:15.733Z,6.90
2018-11-29T16:31:54.513Z,6.90
2018-11-29T16:34:54.318Z,7.00
2018-11-29T16:41:01.700Z,7.00
2018-11-29T16:43:46.706Z,6.90
2018-11-29T16:46:27.039Z,6.90
2018-11-29T16:57:46.447Z,6.70
2018-11-29T17:00:21.924Z,6.70
2018-11-29T17:02:57.855Z,6.70
2018-11-29T17:12:01.965Z,6.60
2018-11-29T17:17:33.083Z,6.90
2018-11-29T17:20:21.749Z,6.90
2018-11-29T17:22:53.495Z,6.90
2018-11-29T17:25:24.378Z,6.80
2018-11-29T17:27:53.790Z,6.70
2018-11-29T17:33:05.265Z,6.50
2018-11-29T17:35:36.058Z,6.50
2018-11-29T17:38:47.813Z,6.10
2018-11-29T17:41:47.515Z,6.00
2018-11-29T17:44:27.553Z,5.90
2018-11-29T17:47:05.498Z,5.90
2018-11-29T17:49:50.061Z,5.80
2018-11-29T17:52:28.428Z,5.60
2018-11-29T17:54:59.662Z,5.60
2018-11-29T18:01:11.008Z,5.70
2018-11-29T18:03:45.774Z,5.80
2018-11-29T18:06:22.103Z,5.80
2018-11-29T18:09:09.702Z,5.80
2018-11-29T18:11:40.788Z,5.80
2018-11-29T18:20:41.465Z,6.00
2018-11-29T18:23:10.376Z,6.20
2018-11-29T18:25:40.927Z,6.30
2018-11-29T18:31:39.335Z,6.30
2018-11-29T18:34:09.537Z,6.40
2018-11-29T18:36:39.575Z,6.40
2018-11-29T18:39:10.472Z,6.40
2018-11-29T18:41:46.400Z,6.40
2018-11-29T18:44:29.133Z,6.40
2018-11-29T18:47:03.097Z,6.30
2018-11-29T18:49:32.756Z,6.30
2018-11-29T18:52:06.154Z,6.40
2018-11-29T18:54:34.719Z,6.40
2018-11-29T18:57:02.846Z,6.40
2018-11-29T18:59:31.587Z,6.30
2018-11-29T19:02:22.007Z,6.30
2018-11-29T19:04:52.686Z,6.40
2018-11-29T19:07:53.737Z,6.20
2018-11-29T19:10:27.320Z,6.10
2018-11-29T19:13:14.908Z,6.10
2018-11-29T19:15:43.006Z,6.10
2018-11-29T19:18:12.767Z,6.10
2018-11-29T19:20:53.736Z,6.10
2018-11-29T19:26:02.736Z,6.10
2018-11-29T19:28:57.692Z,6.10
2018-11-29T19:31:42.465Z,6.10
2018-11-29T19:37:45.445Z,6.30
2018-11-29T19:40:17.106Z,6.20
2018-11-29T19:42:56.822Z,6.10
2018-11-29T19:45:34.301Z,6.00
2018-11-29T19:48:07.428Z,5.90
2018-11-29T19:50:40.664Z,5.90
2018-11-29T19:53:45.720Z,5.80
2018-11-29T19:59:32.916Z,5.70
2018-11-29T20:02:06.474Z,5.60
2018-11-29T20:04:36.111Z,5.60
2018-11-29T20:07:18.904Z,5.60
2018-11-29T20:10:04.648Z,5.50
2018-11-29T20:12:48.758Z,5.40
2018-11-29T20:15:35.801Z,5.20
2018-11-29T20:18:13.106Z,5.10
2018-11-29T20:20:47.259Z,5.10
2018-11-29T20:23:26.788Z,5.10
2018-11-29T20:26:07.837Z,5.00
2018-11-29T20:29:01.198Z,5.00
2018-11-29T20:31:40.566Z,4.90
2018-11-29T20:34:21.125Z,4.90
2018-11-29T20:37:03.648Z,5.00
2018-11-29T20:39:35.377Z,5.00
2018-11-29T20:42:09.878Z,4.90
2018-11-29T20:44:54.554Z,4.90
2018-11-29T20:47:37.633Z,4.80
2018-11-29T20:50:28.512Z,4.90
2018-11-29T20:53:37.289Z,4.80
2018-11-29T20:59:33.827Z,4.70
2018-11-29T21:02:07.423Z,4.70
2018-11-29T21:04:36.588Z,4.70
2018-11-29T21:07:06.610Z,4.70
2018-11-29T21:09:46.847Z,4.80
2018-11-29T21:12:25.539Z,4.80
2018-11-29T21:14:55.366Z,4.80
2018-11-29T21:17:25.127Z,4.80
2018-11-29T21:20:15.043Z,4.80
2018-11-29T21:22:49.194Z,4.90
2018-11-29T21:25:20.984Z,4.80
2018-11-29T21:27:55.237Z,4.80
2018-11-29T21:33:14.872Z,4.80
2018-11-29T21:35:43.337Z,4.70
2018-11-29T21:38:20.253Z,4.70
2018-11-29T21:40:58.197Z,4.70
2018-11-29T21:43:30.718Z,4.70
2018-11-29T21:45:59.338Z,4.70
2018-11-29T21:48:29.008Z,4.70
2018-11-29T21:51:11.094Z,4.70
2018-11-29T21:53:46.734Z,4.60
2018-11-29T21:56:16.931Z,4.60
2018-11-29T21:58:46.198Z,4.50
2018-11-29T22:01:20.524Z,4.50
2018-11-29T22:03:52.362Z,4.50
2018-11-29T22:06:24.853Z,4.40
2018-11-29T22:08:56.698Z,4.40
2018-11-29T22:11:28.433Z,4.40
2018-11-29T22:13:57.746Z,4.40
2018-11-29T22:16:26.535Z,4.30
2018-11-29T22:18:59.557Z,4.30
2018-11-29T22:21:31.928Z,4.30
2018-11-29T22:24:03.968Z,4.30
2018-11-29T22:26:39.867Z,4.30
2018-11-29T22:29:15.208Z,4.40
2018-11-29T22:31:46.003Z,4.40
2018-11-29T22:34:26.505Z,4.40
2018-11-29T22:36:58.983Z,4.30
2018-11-29T22:39:33.709Z,4.40
2018-11-29T22:42:01.779Z,4.40
2018-11-29T22:44:32.604Z,4.40
2018-11-29T22:47:05.095Z,4.40
2018-11-29T22:49:35.259Z,4.40
2018-11-29T22:52:09.996Z,4.30
2018-11-29T22:54:40.558Z,4.30
2018-11-29T22:57:11.497Z,4.40
2018-11-29T22:59:47.799Z,4.30
2018-11-29T23:02:16.289Z,4.40
2018-11-29T23:04:47.414Z,4.40
2018-11-29T23:07:19.499Z,4.40
2018-11-29T23:09:50.891Z,4.40
2018-11-29T23:12:36.332Z,4.40
2018-11-29T23:15:17.402Z,4.30
2018-11-29T23:17:49.719Z,4.30
2018-11-29T23:20:21.405Z,4.30
2018-11-29T23:22:50.389Z,4.30
2018-11-29T23:25:18.412Z,4.20
2018-11-29T23:27:46.341Z,4.20
2018-11-29T23:30:16.176Z,4.20
2018-11-29T23:32:44.583Z,4.20
2018-11-29T23:35:13.758Z,4.20
2018-11-29T23:37:43.573Z,4.20
2018-11-29T23:40:19.194Z,4.20
2018-11-29T23:42:49.580Z,4.20
2018-11-29T23:45:18.695Z,4.20
2018-11-29T23:47:46.615Z,4.10
2018-11-29T23:50:16.278Z,4.20
2018-11-29T23:52:45.129Z,4.20
2018-11-29T23:55:18.334Z,4.10
2018-11-29T23:57:46.196Z,4.20
